Time;durP1;ratioP1;P1;durP2;ratioP2;P2;SDS_P1;SDS_P2;PMS_P1;PMS_P2;Temp;Humidity;BMP_temperature;BMP_pressure;BME280_temperature;BME280_humidity;BME280_pressure;Samples;Min_cycle;Max_cycle;Signal;HPM_P1;HPM_P2
2022/03/25 00:01:51;;;;;;;26.80;11.88;;;7.50;79.40;;;;;;10439977;28;20426;-63
2022/03/25 00:06:53;;;;;;;29.40;13.00;;;7.40;80.20;;;;;;10444878;28;20153;-62
2022/03/25 00:11:55;;;;;;;26.85;11.50;;;7.30;79.50;;;;;;10446997;28;20057;-60
2022/03/25 00:16:56;;;;;;;30.33;12.60;;;7.20;80.10;;;;;;10449016;28;20041;-61
2022/03/25 00:21:58;;;;;;;30.23;11.30;;;7.10;80.70;;;;;;10448736;28;20040;-61
2022/03/25 00:27:00;;;;;;;32.20;11.57;;;7.10;79.10;;;;;;10451665;28;20059;-60
2022/03/25 00:32:02;;;;;;;28.88;11.32;;;7.10;78.90;;;;;;10453082;28;20391;-61
2022/03/25 00:37:04;;;;;;;32.97;13.73;;;7.10;79.80;;;;;;10452118;28;20485;-61
2022/03/25 00:42:09;;;;;;;26.88;10.40;;;7.00;81.20;;;;;;10449398;28;20052;-61
2022/03/25 00:47:11;;;;;;;29.85;11.15;;;6.90;78.80;;;;;;10444404;28;20052;-62
2022/03/25 00:52:13;;;;;;;30.02;10.85;;;6.90;79.20;;;;;;10449211;28;20102;-61
2022/03/25 00:57:16;;;;;;;27.55;10.38;;;6.80;80.80;;;;;;10444867;28;20044;-64
2022/03/25 01:02:21;;;;;;;26.63;11.38;;;6.80;80.20;;;;;;10442176;28;20037;-61
2022/03/25 01:07:23;;;;;;;27.60;10.95;;;6.70;81.30;;;;;;10448690;28;20095;-63
2022/03/25 01:12:25;;;;;;;30.58;12.07;;;6.60;82.20;;;;;;10447668;28;20051;-62
2022/03/25 01:17:27;;;;;;;33.25;12.38;;;6.60;81.30;;;;;;10444242;28;20075;-62
2022/03/25 01:22:29;;;;;;;28.27;10.98;;;6.60;81.20;;;;;;10445858;28;20129;-62
2022/03/25 01:27:30;;;;;;;28.83;10.05;;;6.50;81.10;;;;;;10444589;28;20047;-62
2022/03/25 01:32:34;;;;;;;34.97;12.63;;;6.50;81.50;;;;;;10446542;28;20050;-62
2022/03/25 01:37:39;;;;;;;29.75;11.57;;;6.50;81.10;;;;;;10445259;28;20141;-62
2022/03/25 01:42:43;;;;;;;32.78;10.80;;;6.50;81.00;;;;;;10446367;28;20052;-62
2022/03/25 01:47:45;;;;;;;30.02;12.45;;;6.50;81.50;;;;;;10447319;28;20051;-62
2022/03/25 01:52:49;;;;;;;38.53;12.93;;;6.40;82.60;;;;;;10440835;28;20074;-61
2022/03/25 01:57:51;;;;;;;32.25;12.80;;;6.30;83.40;;;;;;10449894;28;20159;-62
2022/03/25 02:02:53;;;;;;;33.08;13.82;;;6.30;84.70;;;;;;10444881;28;20079;-61
2022/03/25 02:07:55;;;;;;;32.83;11.88;;;6.20;85.60;;;;;;10440352;28;20052;-61
2022/03/25 02:12:57;;;;;;;29.67;11.48;;;6.20;85.20;;;;;;10445574;28;20041;-61
2022/03/25 02:18:05;;;;;;;33.47;10.98;;;6.20;84.80;;;;;;10445587;28;20118;-61
2022/03/25 02:23:08;;;;;;;29.48;11.57;;;6.20;84.20;;;;;;10443399;28;20127;-61
2022/03/25 02:28:10;;;;;;;29.65;11.02;;;6.20;85.10;;;;;;10439352;28;20072;-61
2022/03/25 02:33:14;;;;;;;30.17;11.85;;;6.20;84.30;;;;;;10441054;28;20053;-61
2022/03/25 02:38:21;;;;;;;33.42;11.38;;;6.20;84.10;;;;;;10446135;28;20052;-61
2022/03/25 02:43:23;;;;;;;32.08;13.43;;;6.10;85.70;;;;;;10441926;28;20495;-61
2022/03/25 02:48:24;;;;;;;36.00;14.30;;;6.10;85.50;;;;;;10438083;28;20072;-61
2022/03/25 02:53:27;;;;;;;30.15;12.77;;;6.00;86.80;;;;;;10445989;28;20425;-61
2022/03/25 02:58:29;;;;;;;31.98;11.80;;;5.90;88.50;;;;;;10442902;28;20048;-62
2022/03/25 03:03:30;;;;;;;31.08;11.82;;;5.80;89.00;;;;;;10440704;28;20479;-63
2022/03/25 03:08:34;;;;;;;33.35;12.48;;;5.80;90.10;;;;;;10445405;28;20514;-63
2022/03/25 03:13:35;;;;;;;33.42;13.20;;;5.70;90.40;;;;;;10442404;28;20522;-63
2022/03/25 03:18:37;;;;;;;42.33;14.45;;;5.70;92.10;;;;;;10442401;28;20078;-63
2022/03/25 03:23:39;;;;;;;40.45;14.18;;;5.60;92.40;;;;;;10437758;28;20084;-63
2022/03/25 03:28:40;;;;;;;40.75;13.70;;;5.50;92.40;;;;;;10449137;28;20529;-61
2022/03/25 03:33:42;;;;;;;29.77;11.85;;;5.40;91.80;;;;;;10440520;28;20045;-61
2022/03/25 03:38:44;;;;;;;29.67;10.98;;;5.30;91.90;;;;;;10439449;28;20174;-61
2022/03/25 03:43:45;;;;;;;33.67;11.82;;;5.30;92.20;;;;;;10444223;28;20048;-61
2022/03/25 03:48:47;;;;;;;27.58;11.13;;;5.30;92.10;;;;;;10441208;28;20122;-61
2022/03/25 03:53:49;;;;;;;40.17;12.52;;;5.20;92.90;;;;;;10443284;28;20107;-61
2022/03/25 03:58:50;;;;;;;33.00;10.25;;;5.10;92.80;;;;;;10436587;28;20136;-61
2022/03/25 04:03:53;;;;;;;26.65;10.95;;;5.10;93.10;;;;;;10442950;28;20141;-61
2022/03/25 04:08:56;;;;;;;29.15;11.35;;;5.10;92.70;;;;;;10442009;28;20041;-62
2022/03/25 04:13:57;;;;;;;32.47;12.35;;;5.10;92.70;;;;;;10444793;28;20052;-63
2022/03/25 04:18:59;;;;;;;26.90;10.63;;;5.10;92.90;;;;;;10443224;28;20585;-63
2022/03/25 04:24:01;;;;;;;38.17;12.02;;;5.00;93.90;;;;;;10441235;28;20095;-61
2022/03/25 04:29:02;;;;;;;30.85;12.10;;;5.00;93.40;;;;;;10441890;28;20049;-61
2022/03/25 04:34:04;;;;;;;32.55;11.73;;;5.00;93.80;;;;;;10447775;28;20083;-63
2022/03/25 04:39:06;;;;;;;28.35;11.48;;;5.00;93.60;;;;;;10434590;28;20079;-63
2022/03/25 04:44:07;;;;;;;27.83;10.98;;;5.00;94.10;;;;;;10444224;28;20141;-61
2022/03/25 04:49:09;;;;;;;29.52;11.30;;;5.10;93.50;;;;;;10441945;28;20036;-61
2022/03/25 04:54:11;;;;;;;28.98;10.68;;;5.10;93.80;;;;;;10445372;28;20107;-61
2022/03/25 04:59:12;;;;;;;32.75;11.52;;;5.10;93.50;;;;;;10446696;28;20135;-61
2022/03/25 05:04:14;;;;;;;27.95;11.27;;;5.10;92.90;;;;;;10449740;28;20045;-61
2022/03/25 05:09:17;;;;;;;38.65;11.50;;;5.10;92.60;;;;;;10444284;28;20125;-61
2022/03/25 05:14:20;;;;;;;30.92;11.13;;;5.10;93.30;;;;;;10451977;28;20071;-61
2022/03/25 05:19:22;;;;;;;27.60;10.98;;;5.10;93.00;;;;;;10451127;28;20076;-65
2022/03/25 05:24:27;;;;;;;32.58;11.60;;;5.10;93.20;;;;;;10454178;28;20090;-65
2022/03/25 05:29:29;;;;;;;31.48;11.27;;;5.10;92.90;;;;;;10450276;28;20044;-65
2022/03/25 05:34:31;;;;;;;34.97;12.50;;;5.10;92.70;;;;;;10449259;28;20338;-65
2022/03/25 05:39:32;;;;;;;29.08;12.13;;;5.10;93.20;;;;;;10450965;28;20065;-66
2022/03/25 05:44:34;;;;;;;32.92;12.65;;;5.10;94.10;;;;;;10447364;28;20049;-66
2022/03/25 05:49:36;;;;;;;29.75;10.90;;;5.20;94.80;;;;;;10444366;28;20045;-67
2022/03/25 05:54:37;;;;;;;42.05;12.88;;;5.20;94.60;;;;;;10446147;28;20044;-67
2022/03/25 05:59:39;;;;;;;30.73;11.80;;;5.30;94.30;;;;;;10445560;28;20106;-67
2022/03/25 06:04:41;;;;;;;35.78;12.50;;;5.40;94.60;;;;;;10444031;28;20055;-67
2022/03/25 06:09:43;;;;;;;36.08;13.10;;;5.50;93.50;;;;;;10436193;28;20122;-67
2022/03/25 06:14:44;;;;;;;33.35;11.07;;;5.60;93.30;;;;;;10446441;28;20041;-65
2022/03/25 06:19:46;;;;;;;31.23;11.30;;;5.70;92.30;;;;;;10448969;28;20037;-65
2022/03/25 06:24:47;;;;;;;32.55;10.85;;;5.90;92.30;;;;;;10451755;28;20048;-67
2022/03/25 06:29:49;;;;;;;26.98;10.50;;;6.00;92.20;;;;;;10442449;28;20503;-67
2022/03/25 06:34:51;;;;;;;29.27;11.63;;;6.10;92.40;;;;;;10442042;28;20053;-66
2022/03/25 06:39:53;;;;;;;33.70;12.52;;;6.30;91.50;;;;;;10448850;28;20068;-68
2022/03/25 06:44:54;;;;;;;27.67;11.85;;;6.40;91.30;;;;;;10442837;28;20216;-67
2022/03/25 06:49:56;;;;;;;32.25;12.00;;;6.50;90.50;;;;;;10443767;28;20064;-66
2022/03/25 06:54:58;;;;;;;32.10;10.75;;;6.70;88.40;;;;;;10448141;28;20512;-68
2022/03/25 07:00:00;;;;;;;34.55;11.48;;;6.90;88.10;;;;;;10441828;28;20438;-66
2022/03/25 07:05:02;;;;;;;30.50;10.95;;;7.10;89.00;;;;;;10442273;28;20579;-67
2022/03/25 07:10:06;;;;;;;33.03;13.23;;;7.40;90.10;;;;;;10441858;28;20107;-67
2022/03/25 07:15:08;;;;;;;28.10;10.32;;;7.60;88.70;;;;;;10441909;28;20056;-66
2022/03/25 07:20:15;;;;;;;31.58;11.95;;;8.00;86.00;;;;;;10441726;28;20917;-66
2022/03/25 07:25:18;;;;;;;33.97;11.13;;;8.20;84.50;;;;;;10446454;28;20048;-66
2022/03/25 07:30:20;;;;;;;30.83;11.50;;;8.50;81.80;;;;;;10438129;28;20055;-66
2022/03/25 07:35:21;;;;;;;32.25;11.95;;;8.90;77.80;;;;;;10441126;28;20441;-67
2022/03/25 07:40:23;;;;;;;26.40;10.85;;;9.20;75.30;;;;;;10436341;28;20110;-67
2022/03/25 07:45:25;;;;;;;31.33;11.50;;;9.40;72.70;;;;;;10443005;28;20077;-66
2022/03/25 07:50:27;;;;;;;36.53;11.38;;;9.70;71.70;;;;;;10438076;28;20040;-66
2022/03/25 07:55:29;;;;;;;31.55;12.90;;;9.90;69.70;;;;;;10438868;28;20048;-64
2022/03/25 08:00:31;;;;;;;34.67;12.55;;;10.10;68.60;;;;;;10436513;28;20079;-67
2022/03/25 08:05:34;;;;;;;35.20;12.48;;;10.30;67.60;;;;;;10442782;28;20415;-68
2022/03/25 08:10:38;;;;;;;35.40;12.95;;;10.50;67.70;;;;;;10444235;28;20048;-68
2022/03/25 08:15:40;;;;;;;31.25;13.60;;;10.70;65.50;;;;;;10442798;28;20117;-67
2022/03/25 08:20:45;;;;;;;29.15;12.93;;;10.80;64.60;;;;;;10435424;28;20545;-67
2022/03/25 08:31:06;;;;;;;34.50;12.77;;;11.10;63.90;;;;;;10450506;28;20076;-68
2022/03/25 08:36:08;;;;;;;29.10;11.65;;;11.30;64.20;;;;;;10450286;28;20068;-67
2022/03/25 08:41:11;;;;;;;28.35;11.70;;;11.40;64.30;;;;;;10452121;28;20044;-68
2022/03/25 08:46:13;;;;;;;32.08;13.27;;;11.50;63.90;;;;;;10445749;28;20102;-68
2022/03/25 08:51:15;;;;;;;31.20;13.18;;;11.70;62.10;;;;;;10438522;28;20049;-68
2022/03/25 08:56:17;;;;;;;38.47;13.32;;;11.80;62.80;;;;;;10452880;28;20114;-67
2022/03/25 09:01:19;;;;;;;35.30;13.63;;;12.00;61.00;;;;;;10453459;28;20036;-66
2022/03/25 09:06:21;;;;;;;36.00;14.75;;;12.10;60.60;;;;;;10447002;28;20087;-67
2022/03/25 09:11:22;;;;;;;29.52;13.70;;;12.20;60.20;;;;;;10437322;28;20140;-66
2022/03/25 09:16:24;;;;;;;35.10;13.38;;;12.40;61.10;;;;;;10450790;28;20056;-68
2022/03/25 09:21:26;;;;;;;40.83;14.75;;;12.60;60.20;;;;;;10447278;28;20110;-66
2022/03/25 09:26:27;;;;;;;37.33;15.02;;;12.80;59.80;;;;;;10445008;28;20322;-66
2022/03/25 09:31:29;;;;;;;33.58;15.75;;;12.90;58.20;;;;;;10436369;28;20052;-68
2022/03/25 09:36:44;;;;;;;35.03;14.10;;;13.10;58.40;;;;;;10446865;28;20128;-67
2022/03/25 09:41:46;;;;;;;36.65;14.15;;;13.20;58.00;;;;;;10451820;28;20064;-67
2022/03/25 09:46:50;;;;;;;32.83;14.45;;;13.40;57.40;;;;;;10446532;28;20110;-68
2022/03/25 09:51:52;;;;;;;36.00;13.93;;;13.60;58.10;;;;;;10443127;28;20056;-68
2022/03/25 09:57:00;;;;;;;39.88;15.60;;;13.80;57.20;;;;;;10443729;28;20760;-68
2022/03/25 10:02:02;;;;;;;33.58;14.40;;;13.90;56.50;;;;;;10440224;28;20155;-69
2022/03/25 10:07:27;;;;;;;36.78;16.00;;;14.10;55.40;;;;;;10441294;28;20049;-69
2022/03/25 10:12:29;;;;;;;36.45;14.25;;;14.30;56.40;;;;;;10442495;28;20047;-68
2022/03/25 10:17:54;;;;;;;33.17;15.95;;;14.40;56.20;;;;;;10442648;28;20068;-71
2022/03/25 10:23:07;;;;;;;36.30;14.85;;;14.70;54.10;;;;;;10441609;28;20502;-68
2022/03/25 10:28:29;;;;;;;39.95;17.05;;;14.90;54.50;;;;;;10438790;28;20069;-67
2022/03/25 10:33:32;;;;;;;40.63;15.57;;;15.20;53.40;;;;;;10443458;28;20044;-67
2022/03/25 10:38:45;;;;;;;41.60;16.67;;;15.50;53.00;;;;;;10452059;28;20137;-68
2022/03/25 10:43:51;;;;;;;42.88;15.68;;;15.70;52.50;;;;;;10439383;28;20084;-67
2022/03/25 10:48:56;;;;;;;39.28;15.55;;;16.00;51.40;;;;;;10447904;28;20479;-68
2022/03/25 10:54:05;;;;;;;36.67;16.17;;;16.30;51.70;;;;;;10450458;28;20052;-68
2022/03/25 10:59:23;;;;;;;36.75;15.90;;;16.50;50.60;;;;;;10444762;28;20037;-67
2022/03/25 11:04:26;;;;;;;34.60;16.13;;;16.60;49.30;;;;;;10447885;28;20052;-69
2022/03/25 11:09:29;;;;;;;33.92;15.88;;;16.90;49.10;;;;;;10439584;28;20072;-69
2022/03/25 11:14:32;;;;;;;38.25;16.92;;;17.00;47.50;;;;;;10447577;28;20041;-69
2022/03/25 11:19:37;;;;;;;32.75;15.88;;;17.20;46.60;;;;;;10441926;28;20067;-69
2022/03/25 11:24:45;;;;;;;43.25;17.10;;;17.40;44.90;;;;;;10443553;28;20523;-69
2022/03/25 11:29:55;;;;;;;33.17;15.52;;;17.60;44.40;;;;;;10442003;28;20105;-69
2022/03/25 11:34:57;;;;;;;32.90;14.82;;;17.90;43.90;;;;;;10444579;28;20206;-69
2022/03/25 11:40:14;;;;;;;36.22;15.85;;;18.10;42.20;;;;;;10441513;28;20072;-69
2022/03/25 11:45:19;;;;;;;;;;;18.30;42.20;;;;;;10443052;28;20041;-69
2022/03/25 11:50:35;;;;;;;35.70;15.43;;;18.40;42.50;;;;;;10437653;28;21472;-69
2022/03/25 11:55:59;;;;;;;29.38;15.00;;;18.70;41.90;;;;;;10435096;28;20049;-69
2022/03/25 12:01:12;;;;;;;34.10;15.63;;;18.90;41.90;;;;;;10437530;28;20060;-69
2022/03/25 12:06:14;;;;;;;30.95;14.95;;;19.00;41.10;;;;;;10446386;28;20107;-69
2022/03/25 12:11:17;;;;;;;27.30;13.82;;;19.20;41.10;;;;;;10441315;28;20138;-69
2022/03/25 12:16:47;;;;;;;37.92;16.30;;;19.40;40.50;;;;;;10445557;28;20048;-69
2022/03/25 12:21:48;;;;;;;35.15;15.85;;;19.50;39.70;;;;;;10436831;28;20045;-68
2022/03/25 12:27:02;;;;;;;32.75;14.95;;;19.70;40.00;;;;;;10440707;28;20102;-68
2022/03/25 12:32:06;;;;;;;29.42;14.27;;;19.90;39.00;;;;;;10439920;28;20045;-68
2022/03/25 12:37:22;;;;;;;30.70;14.60;;;19.90;37.40;;;;;;10446187;28;20041;-69
2022/03/25 12:42:28;;;;;;;31.35;15.43;;;20.30;38.80;;;;;;10442959;28;20056;-68
2022/03/25 12:47:30;;;;;;;31.23;16.03;;;20.30;38.10;;;;;;10437044;28;20094;-69
2022/03/25 12:52:32;;;;;;;36.33;15.75;;;20.60;37.80;;;;;;10433647;28;20135;-69
2022/03/25 12:57:36;;;;;;;29.95;15.40;;;20.70;38.00;;;;;;10440229;28;20049;-68
2022/03/25 13:02:43;;;;;;;33.50;16.95;;;20.90;37.30;;;;;;10446002;28;20093;-68
2022/03/25 13:07:47;;;;;;;33.72;16.58;;;21.00;37.70;;;;;;10442176;28;20082;-68
2022/03/25 13:12:52;;;;;;;33.45;15.90;;;21.20;37.90;;;;;;10441876;28;20048;-68
2022/03/25 13:17:56;;;;;;;30.10;15.05;;;20.90;37.90;;;;;;10446769;28;20782;-69
2022/03/25 13:23:01;;;;;;;31.27;15.95;;;21.30;36.80;;;;;;10447060;28;20102;-69
2022/03/25 13:28:09;;;;;;;33.20;16.17;;;21.50;35.40;;;;;;10446301;28;20064;-70
2022/03/25 13:33:13;;;;;;;30.48;15.43;;;21.60;36.00;;;;;;10448784;28;20048;-69
2022/03/25 13:38:23;;;;;;;32.33;14.80;;;21.70;35.40;;;;;;10449995;28;20091;-68
2022/03/25 13:43:34;;;;;;;27.42;12.85;;;21.80;35.20;;;;;;10440106;28;20056;-67
2022/03/25 13:48:40;;;;;;;28.30;14.93;;;21.90;34.50;;;;;;10442562;28;20064;-67
2022/03/25 13:53:42;;;;;;;30.17;14.13;;;22.10;35.60;;;;;;10447910;28;20497;-67
2022/03/25 13:58:49;;;;;;;25.75;13.38;;;22.10;34.40;;;;;;10448643;28;20072;-66
2022/03/25 14:04:11;;;;;;;27.02;14.55;;;22.20;34.60;;;;;;10445724;28;20080;-66
2022/03/25 14:09:31;;;;;;;23.45;12.90;;;22.30;33.80;;;;;;10445519;28;20047;-66
2022/03/25 14:14:35;;;;;;;27.77;13.73;;;22.30;33.00;;;;;;10445600;28;20044;-66
2022/03/25 14:19:37;;;;;;;26.38;14.30;;;22.50;33.10;;;;;;10444153;28;20441;-68
2022/03/25 14:24:40;;;;;;;23.67;12.13;;;22.40;32.90;;;;;;10445393;28;20044;-65
2022/03/25 14:29:42;;;;;;;26.15;14.32;;;22.50;33.10;;;;;;10444392;28;20056;-66
2022/03/25 14:34:45;;;;;;;26.70;15.25;;;22.70;33.20;;;;;;10446147;28;20063;-66
2022/03/25 14:39:46;;;;;;;28.90;15.25;;;22.80;34.00;;;;;;10435941;28;20454;-66
2022/03/25 14:44:51;;;;;;;31.63;15.95;;;22.90;33.20;;;;;;10449328;28;20049;-67
2022/03/25 14:49:53;;;;;;;31.13;15.88;;;22.90;33.20;;;;;;10440856;28;20068;-67
2022/03/25 14:54:55;;;;;;;35.45;15.88;;;22.90;33.40;;;;;;10444780;28;20049;-66
2022/03/25 14:59:57;;;;;;;34.42;17.17;;;22.80;33.60;;;;;;10445706;28;20079;-66
2022/03/25 15:05:00;;;;;;;30.30;15.82;;;22.60;33.70;;;;;;10441117;28;20041;-67
2022/03/25 15:10:03;;;;;;;27.63;14.38;;;22.60;33.60;;;;;;10444242;28;20056;-66
2022/03/25 15:15:06;;;;;;;31.23;14.32;;;22.60;33.80;;;;;;10444873;28;20140;-65
2022/03/25 15:20:08;;;;;;;25.40;13.73;;;22.20;34.20;;;;;;10430389;28;20048;-64
2022/03/25 15:25:11;;;;;;;30.92;14.88;;;22.10;34.60;;;;;;10442889;28;20044;-64
2022/03/25 15:35:34;;;;;;;27.27;13.43;;;21.50;35.00;;;;;;10443512;28;20060;-64
2022/03/25 15:40:55;;;;;;;30.00;14.23;;;21.30;35.80;;;;;;10439189;28;20128;-64
2022/03/25 15:45:57;;;;;;;33.15;13.77;;;21.10;36.20;;;;;;10447148;28;20075;-63
2022/03/25 15:50:59;;;;;;;27.65;13.70;;;20.90;35.70;;;;;;10441798;28;20049;-63
2022/03/25 15:56:01;;;;;;;26.63;12.32;;;20.70;36.30;;;;;;10445716;28;20044;-63
2022/03/25 16:01:03;;;;;;;27.77;12.25;;;20.40;36.60;;;;;;10439086;28;20037;-63
2022/03/25 16:06:06;;;;;;;30.95;13.15;;;20.20;37.30;;;;;;10438827;28;20876;-63
2022/03/25 16:11:07;;;;;;;29.38;12.30;;;19.90;36.80;;;;;;10446088;28;20037;-63
2022/03/25 16:16:10;;;;;;;28.33;12.75;;;19.70;37.00;;;;;;10441010;28;20049;-67
2022/03/25 16:21:12;;;;;;;29.55;13.27;;;19.40;37.10;;;;;;10443577;28;20049;-67
2022/03/25 16:26:13;;;;;;;25.98;12.73;;;19.30;38.80;;;;;;10445103;28;20048;-69
2022/03/25 16:31:15;;;;;;;28.85;12.70;;;19.20;37.60;;;;;;10438455;28;20472;-69
2022/03/25 16:36:17;;;;;;;32.88;11.73;;;19.10;38.50;;;;;;10442353;28;20047;-68
2022/03/25 16:41:19;;;;;;;27.45;12.40;;;19.00;38.90;;;;;;10441927;28;20044;-68
2022/03/25 16:46:21;;;;;;;28.25;12.05;;;18.90;39.00;;;;;;10443941;28;20502;-68
2022/03/25 16:51:23;;;;;;;24.50;11.80;;;18.70;39.70;;;;;;10445933;28;20047;-70
2022/03/25 16:56:25;;;;;;;29.73;13.40;;;18.60;39.70;;;;;;10451898;28;20037;-68
2022/03/25 17:01:26;;;;;;;26.73;11.63;;;18.50;40.00;;;;;;10455294;28;20048;-68
2022/03/25 17:06:29;;;;;;;27.45;12.88;;;18.20;40.50;;;;;;10448102;28;20625;-69
2022/03/25 17:11:32;;;;;;;27.17;12.82;;;17.90;41.10;;;;;;10449176;28;20049;-70
2022/03/25 17:16:33;;;;;;;25.50;12.07;;;17.50;41.50;;;;;;10452513;28;20067;-68
2022/03/25 17:21:36;;;;;;;31.65;11.20;;;17.20;42.20;;;;;;10445772;28;20148;-69
2022/03/25 17:26:38;;;;;;;22.52;11.32;;;16.90;42.60;;;;;;10453201;28;20084;-69
2022/03/25 17:31:40;;;;;;;29.58;12.07;;;16.70;43.30;;;;;;10454804;28;20044;-69
2022/03/25 17:36:43;;;;;;;27.30;12.40;;;16.50;43.90;;;;;;10455487;28;20107;-69
2022/03/25 17:41:45;;;;;;;24.65;11.50;;;16.20;44.60;;;;;;10448100;28;20048;-69
2022/03/25 17:46:47;;;;;;;30.73;11.45;;;15.90;45.40;;;;;;10449268;28;20063;-68
2022/03/25 17:51:49;;;;;;;32.25;12.35;;;15.70;45.80;;;;;;10450136;28;20048;-68
2022/03/25 17:56:51;;;;;;;29.55;12.18;;;15.50;46.70;;;;;;10448973;28;20049;-69
2022/03/25 18:01:53;;;;;;;31.35;12.13;;;15.20;47.20;;;;;;10448532;28;20135;-69
2022/03/25 18:06:55;;;;;;;37.00;14.05;;;15.10;47.90;;;;;;10454207;28;20629;-69
2022/03/25 18:11:56;;;;;;;36.00;13.93;;;14.90;48.30;;;;;;10456908;28;20056;-68
2022/03/25 18:16:59;;;;;;;32.83;12.68;;;14.60;48.70;;;;;;10447166;28;20068;-68
2022/03/25 18:22:01;;;;;;;33.25;12.18;;;14.40;49.40;;;;;;10447466;28;20506;-70
2022/03/25 18:27:03;;;;;;;29.70;12.52;;;14.20;50.10;;;;;;10449249;28;20141;-60
2022/03/25 18:32:06;;;;;;;51.75;17.13;;;14.10;50.80;;;;;;10449368;28;20066;-60
2022/03/25 18:37:09;;;;;;;32.15;11.95;;;13.80;51.50;;;;;;10448840;28;20060;-60
2022/03/25 18:42:11;;;;;;;33.53;13.23;;;13.60;51.70;;;;;;10429302;28;20076;-60
2022/03/25 18:47:12;;;;;;;28.05;12.68;;;13.40;52.10;;;;;;10413544;28;20045;-60
2022/03/25 18:52:14;;;;;;;34.83;13.73;;;13.20;51.90;;;;;;10406326;28;20043;-60
2022/03/25 18:57:16;;;;;;;31.10;13.05;;;13.00;52.20;;;;;;10403498;28;20073;-60
2022/03/25 19:02:19;;;;;;;32.85;12.73;;;12.90;53.40;;;;;;10413246;28;20049;-60
2022/03/25 19:07:21;;;;;;;29.45;12.27;;;12.70;53.30;;;;;;10409681;28;20102;-61
2022/03/25 19:12:23;;;;;;;31.42;12.77;;;12.60;54.10;;;;;;10406188;28;20076;-61
2022/03/25 19:17:24;;;;;;;40.47;14.18;;;12.40;55.20;;;;;;10410719;28;20045;-60
2022/03/25 19:22:26;;;;;;;49.03;19.38;;;12.20;56.40;;;;;;10407653;28;20059;-60
2022/03/25 19:27:28;;;;;;;61.42;23.95;;;12.00;56.80;;;;;;10405446;28;20748;-60
2022/03/25 19:32:29;;;;;;;69.50;29.60;;;11.80;58.80;;;;;;10403502;28;20144;-60
2022/03/25 19:37:31;;;;;;;68.32;26.48;;;11.70;58.50;;;;;;10407218;28;20045;-60
2022/03/25 19:42:38;;;;;;;73.65;25.90;;;11.50;58.50;;;;;;10398964;28;20045;-61
2022/03/25 19:47:40;;;;;;;72.65;26.92;;;11.40;58.00;;;;;;10407272;28;20514;-60
2022/03/25 19:52:42;;;;;;;61.85;25.95;;;11.30;58.10;;;;;;10403764;28;20069;-61
2022/03/25 19:57:44;;;;;;;61.08;23.35;;;11.20;59.50;;;;;;10406690;28;20049;-62
2022/03/25 20:02:46;;;;;;;61.95;22.25;;;11.00;60.10;;;;;;10404896;28;20122;-61
2022/03/25 20:07:47;;;;;;;45.83;18.90;;;10.90;60.10;;;;;;10407781;28;20045;-61
2022/03/25 20:12:49;;;;;;;50.42;19.17;;;10.80;59.70;;;;;;10407025;28;20110;-61
2022/03/25 20:17:51;;;;;;;42.08;16.00;;;10.60;59.70;;;;;;10403802;28;20136;-61
2022/03/25 20:22:53;;;;;;;44.22;14.98;;;10.50;58.20;;;;;;10411276;28;20182;-61
2022/03/25 20:27:55;;;;;;;46.65;15.27;;;10.50;58.00;;;;;;10412784;28;20073;-61
2022/03/25 20:32:57;;;;;;;35.85;11.85;;;10.50;57.80;;;;;;10412916;28;20053;-61
2022/03/25 20:38:00;;;;;;;33.03;10.68;;;10.40;56.30;;;;;;10406932;28;20146;-61
2022/03/25 20:43:01;;;;;;;30.63;10.13;;;10.50;55.80;;;;;;10396832;28;20123;-61
2022/03/25 20:48:04;;;;;;;25.50;8.45;;;10.40;55.40;;;;;;10411423;28;20049;-61
2022/03/25 20:53:05;;;;;;;24.90;8.45;;;10.40;55.60;;;;;;10413443;28;20045;-61
2022/03/25 20:58:07;;;;;;;28.80;10.82;;;10.40;56.50;;;;;;10412019;28;20561;-61
2022/03/25 21:03:09;;;;;;;28.42;11.25;;;10.20;57.50;;;;;;10413785;28;20073;-60
2022/03/25 21:08:10;;;;;;;26.60;10.68;;;10.10;59.20;;;;;;10410212;28;20106;-63
2022/03/25 21:13:33;;;;;;;26.98;9.70;;;10.00;59.80;;;;;;10412799;28;20045;-60
2022/03/25 21:18:35;;;;;;;26.23;10.13;;;9.80;59.70;;;;;;10407339;28;20045;-61
2022/03/25 21:23:36;;;;;;;24.60;10.00;;;9.70;61.00;;;;;;10409659;28;20050;-61
2022/03/25 21:28:38;;;;;;;26.05;9.50;;;9.60;62.30;;;;;;10413341;28;20495;-61
2022/03/25 21:33:40;;;;;;;25.83;10.00;;;9.40;64.80;;;;;;10408247;28;20076;-60
2022/03/25 21:38:41;;;;;;;22.35;9.52;;;9.20;64.60;;;;;;10415514;28;20068;-60
2022/03/25 21:43:43;;;;;;;16.83;7.13;;;9.10;64.60;;;;;;10415997;28;20114;-61
2022/03/25 21:48:45;;;;;;;20.50;6.65;;;9.00;61.50;;;;;;10413184;28;20210;-62
2022/03/25 21:53:46;;;;;;;23.95;8.57;;;9.00;60.80;;;;;;10412192;28;20041;-62
2022/03/25 21:58:48;;;;;;;19.05;7.18;;;8.90;61.30;;;;;;10412916;28;20045;-62
2022/03/25 22:03:50;;;;;;;20.90;6.88;;;8.90;62.20;;;;;;10409786;28;20550;-62
2022/03/25 22:08:52;;;;;;;19.20;6.55;;;8.90;60.30;;;;;;10414048;28;20107;-62
2022/03/25 22:13:54;;;;;;;25.27;9.40;;;8.80;60.70;;;;;;10406106;28;20057;-61
2022/03/25 22:18:55;;;;;;;18.40;7.28;;;8.80;61.80;;;;;;10411307;28;20120;-61
2022/03/25 22:23:59;;;;;;;19.40;8.57;;;8.80;61.60;;;;;;10413195;28;20141;-61
2022/03/25 22:29:01;;;;;;;20.92;8.15;;;8.70;64.10;;;;;;10415378;28;20053;-62
2022/03/25 22:34:02;;;;;;;23.85;8.60;;;8.60;65.00;;;;;;10409670;28;20069;-61
2022/03/25 22:39:05;;;;;;;24.58;9.75;;;8.40;64.90;;;;;;10407277;28;20133;-61
2022/03/25 22:44:12;;;;;;;25.35;8.27;;;8.30;65.10;;;;;;10408576;28;20072;-61
2022/03/25 22:49:14;;;;;;;28.20;8.40;;;8.20;66.70;;;;;;10405097;28;20049;-62
2022/03/25 22:54:16;;;;;;;19.00;8.13;;;8.10;67.10;;;;;;10407673;28;20053;-62
2022/03/25 22:59:18;;;;;;;28.45;9.35;;;8.00;67.50;;;;;;10408220;28;20061;-61
2022/03/25 23:04:19;;;;;;;26.52;8.48;;;7.90;68.70;;;;;;10401544;28;20367;-61
2022/03/25 23:09:21;;;;;;;19.00;7.38;;;7.80;68.00;;;;;;10406921;28;20053;-61
2022/03/25 23:14:23;;;;;;;23.50;8.77;;;7.70;68.80;;;;;;10407528;28;20050;-61
2022/03/25 23:19:25;;;;;;;26.27;8.38;;;7.60;69.40;;;;;;10404606;28;20564;-61
2022/03/25 23:24:27;;;;;;;19.65;7.45;;;7.50;69.70;;;;;;10407583;28;20484;-60
2022/03/25 23:29:29;;;;;;;29.30;7.90;;;7.40;69.80;;;;;;10420747;28;20049;-61
2022/03/25 23:34:30;;;;;;;24.55;8.10;;;7.30;69.10;;;;;;10402214;28;20507;-61
2022/03/25 23:39:32;;;;;;;22.70;7.18;;;7.20;69.20;;;;;;10410305;28;20077;-61
2022/03/25 23:44:34;;;;;;;26.15;9.25;;;7.10;69.70;;;;;;10401576;28;20671;-61
2022/03/25 23:49:35;;;;;;;33.25;10.95;;;7.00;69.70;;;;;;10399642;28;20338;-60
2022/03/25 23:54:37;;;;;;;29.38;9.23;;;6.90;71.20;;;;;;10400729;28;20110;-61
2022/03/25 23:59:39;;;;;;;22.77;8.63;;;6.90;71.40;;;;;;10402878;28;20100;-61
